sensor_id;sensor_type;location;lat;lon;timestamp;pressure;altitude;pressure_sealevel;temperature;humidity
61906;BME280;47863;55.766;37.672;2023-06-22T00:00:55;100125.53;;;15.37;42.63
61906;BME280;47863;55.766;37.672;2023-06-22T00:03:22;100116.13;;;15.33;42.45
61906;BME280;47863;55.766;37.672;2023-06-22T00:05:50;100128.41;;;15.36;42.75
61906;BME280;47863;55.766;37.672;2023-06-22T00:08:16;100101.59;;;15.19;42.86
61906;BME280;47863;55.766;37.672;2023-06-22T00:10:43;100131.50;;;15.33;42.84
61906;BME280;47863;55.766;37.672;2023-06-22T00:13:09;100119.75;;;15.25;43.00
61906;BME280;47863;55.766;37.672;2023-06-22T00:15:36;100124.78;;;15.29;42.93
61906;BME280;47863;55.766;37.672;2023-06-22T00:18:03;100129.53;;;15.26;43.24
61906;BME280;47863;55.766;37.672;2023-06-22T00:20:29;100113.78;;;15.15;43.12
61906;BME280;47863;55.766;37.672;2023-06-22T00:22:56;100128.28;;;15.14;43.07
61906;BME280;47863;55.766;37.672;2023-06-22T00:25:22;100139.19;;;15.21;43.43
61906;BME280;47863;55.766;37.672;2023-06-22T00:27:48;100140.19;;;15.20;43.37
61906;BME280;47863;55.766;37.672;2023-06-22T00:30:15;100125.94;;;15.11;43.55
61906;BME280;47863;55.766;37.672;2023-06-22T00:32:42;100137.88;;;15.17;43.57
61906;BME280;47863;55.766;37.672;2023-06-22T00:35:07;100139.06;;;15.14;43.67
61906;BME280;47863;55.766;37.672;2023-06-22T00:37:34;100141.09;;;15.12;43.82
61906;BME280;47863;55.766;37.672;2023-06-22T00:40:01;100133.56;;;15.07;43.90
61906;BME280;47863;55.766;37.672;2023-06-22T00:42:30;100133.56;;;15.07;43.87
61906;BME280;47863;55.766;37.672;2023-06-22T00:44:55;100108.78;;;14.89;43.97
61906;BME280;47863;55.766;37.672;2023-06-22T00:47:21;100115.94;;;14.97;44.07
61906;BME280;47863;55.766;37.672;2023-06-22T00:49:48;100131.22;;;15.04;44.08
61906;BME280;47863;55.766;37.672;2023-06-22T00:52:17;100065.34;;;14.61;44.38
61906;BME280;47863;55.766;37.672;2023-06-22T00:54:47;100124.25;;;14.95;44.32
61906;BME280;47863;55.766;37.672;2023-06-22T00:57:14;100138.00;;;15.00;44.26
61906;BME280;47863;55.766;37.672;2023-06-22T00:59:44;100122.72;;;14.93;44.73
61906;BME280;47863;55.766;37.672;2023-06-22T01:02:10;100114.34;;;14.87;44.55
61906;BME280;47863;55.766;37.672;2023-06-22T01:04:37;100131.28;;;14.96;44.74
61906;BME280;47863;55.766;37.672;2023-06-22T01:12:55;100125.91;;;14.96;44.84
61906;BME280;47863;55.766;37.672;2023-06-22T01:15:36;100137.72;;;14.95;45.01
61906;BME280;47863;55.766;37.672;2023-06-22T01:18:04;100127.84;;;14.87;45.00
61906;BME280;47863;55.766;37.672;2023-06-22T01:20:34;100128.66;;;14.88;45.10
61906;BME280;47863;55.766;37.672;2023-06-22T01:25:53;100150.00;;;14.98;45.08
61906;BME280;47863;55.766;37.672;2023-06-22T01:31:07;100135.50;;;14.99;45.27
61906;BME280;47863;55.766;37.672;2023-06-22T01:33:37;100128.31;;;14.91;45.49
61906;BME280;47863;55.766;37.672;2023-06-22T01:36:06;100148.44;;;15.03;45.47
61906;BME280;47863;55.766;37.672;2023-06-22T01:38:32;100141.84;;;15.06;45.50
61906;BME280;47863;55.766;37.672;2023-06-22T01:41:00;100121.22;;;14.90;45.24
61906;BME280;47863;55.766;37.672;2023-06-22T01:43:27;100134.78;;;15.05;45.72
61906;BME280;47863;55.766;37.672;2023-06-22T01:45:54;100122.19;;;14.97;45.62
61906;BME280;47863;55.766;37.672;2023-06-22T01:48:21;100145.50;;;15.13;45.69
61906;BME280;47863;55.766;37.672;2023-06-22T01:50:48;100120.63;;;15.03;45.82
61906;BME280;47863;55.766;37.672;2023-06-22T01:53:14;100150.81;;;15.21;45.71
61906;BME280;47863;55.766;37.672;2023-06-22T01:55:39;100154.00;;;15.25;45.83
61906;BME280;47863;55.766;37.672;2023-06-22T01:58:05;100152.59;;;15.29;45.92
61906;BME280;47863;55.766;37.672;2023-06-22T02:00:37;100137.06;;;15.31;46.34
61906;BME280;47863;55.766;37.672;2023-06-22T02:03:19;100135.38;;;15.30;45.81
61906;BME280;47863;55.766;37.672;2023-06-22T02:05:54;100137.81;;;15.40;46.27
61906;BME280;47863;55.766;37.672;2023-06-22T02:08:23;100110.91;;;15.32;45.93
61906;BME280;47863;55.766;37.672;2023-06-22T02:10:51;100136.72;;;15.49;45.99
61906;BME280;47863;55.766;37.672;2023-06-22T02:13:18;100109.50;;;15.36;46.10
61906;BME280;47863;55.766;37.672;2023-06-22T02:15:45;100133.91;;;15.57;46.12
61906;BME280;47863;55.766;37.672;2023-06-22T02:18:13;100120.25;;;15.59;46.12
61906;BME280;47863;55.766;37.672;2023-06-22T02:20:39;100101.44;;;15.51;46.01
61906;BME280;47863;55.766;37.672;2023-06-22T02:23:06;100118.28;;;15.67;46.13
61906;BME280;47863;55.766;37.672;2023-06-22T02:25:33;100121.63;;;15.70;46.31
61906;BME280;47863;55.766;37.672;2023-06-22T02:27:58;100110.50;;;15.73;46.26
61906;BME280;47863;55.766;37.672;2023-06-22T02:30:24;100096.50;;;15.69;46.23
61906;BME280;47863;55.766;37.672;2023-06-22T02:32:50;100103.22;;;15.73;46.41
61906;BME280;47863;55.766;37.672;2023-06-22T02:35:27;100095.41;;;15.78;46.41
61906;BME280;47863;55.766;37.672;2023-06-22T02:37:59;100084.88;;;15.69;46.80
61906;BME280;47863;55.766;37.672;2023-06-22T02:40:26;100102.94;;;15.83;46.46
61906;BME280;47863;55.766;37.672;2023-06-22T02:42:52;100099.88;;;15.86;46.74
61906;BME280;47863;55.766;37.672;2023-06-22T02:45:18;100055.91;;;15.62;46.64
61906;BME280;47863;55.766;37.672;2023-06-22T02:47:44;100103.47;;;15.93;46.66
61906;BME280;47863;55.766;37.672;2023-06-22T02:50:10;100100.41;;;15.96;46.74
61906;BME280;47863;55.766;37.672;2023-06-22T02:52:36;100103.13;;;15.96;46.72
61906;BME280;47863;55.766;37.672;2023-06-22T02:55:01;100018.75;;;15.50;46.63
61906;BME280;47863;55.766;37.672;2023-06-22T02:57:29;100094.25;;;16.02;46.52
61906;BME280;47863;55.766;37.672;2023-06-22T02:59:55;100088.09;;;16.09;46.53
61906;BME280;47863;55.766;37.672;2023-06-22T03:02:21;100088.19;;;16.15;46.67
61906;BME280;47863;55.766;37.672;2023-06-22T03:04:47;100091.78;;;16.22;46.56
61906;BME280;47863;55.766;37.672;2023-06-22T03:07:15;100059.19;;;16.09;46.54
61906;BME280;47863;55.766;37.672;2023-06-22T03:09:40;100087.94;;;16.32;46.20
61906;BME280;47863;55.766;37.672;2023-06-22T03:12:08;100061.03;;;16.23;45.74
61906;BME280;47863;55.766;37.672;2023-06-22T03:14:34;100092.44;;;16.46;45.66
61906;BME280;47863;55.766;37.672;2023-06-22T03:16:59;100076.03;;;16.48;45.29
61906;BME280;47863;55.766;37.672;2023-06-22T03:19:29;100087.56;;;16.56;44.90
61906;BME280;47863;55.766;37.672;2023-06-22T03:21:57;100082.66;;;16.66;44.56
61906;BME280;47863;55.766;37.672;2023-06-22T03:24:23;100063.50;;;16.61;44.79
61906;BME280;47863;55.766;37.672;2023-06-22T03:26:49;100063.53;;;16.68;44.48
61906;BME280;47863;55.766;37.672;2023-06-22T03:29:14;100075.97;;;16.84;44.25
61906;BME280;47863;55.766;37.672;2023-06-22T03:31:41;100078.53;;;16.92;44.19
61906;BME280;47863;55.766;37.672;2023-06-22T03:34:06;100071.97;;;17.01;43.89
61906;BME280;47863;55.766;37.672;2023-06-22T03:36:32;100053.03;;;17.01;43.86
61906;BME280;47863;55.766;37.672;2023-06-22T03:38:57;100074.00;;;17.21;43.62
61906;BME280;47863;55.766;37.672;2023-06-22T03:41:23;100054.59;;;17.17;43.75
61906;BME280;47863;55.766;37.672;2023-06-22T03:43:49;100048.00;;;17.27;43.46
61906;BME280;47863;55.766;37.672;2023-06-22T03:46:14;100065.63;;;17.51;43.10
61906;BME280;47863;55.766;37.672;2023-06-22T03:48:40;100064.63;;;17.58;43.06
61906;BME280;47863;55.766;37.672;2023-06-22T03:51:06;100063.03;;;17.71;42.92
61906;BME280;47863;55.766;37.672;2023-06-22T03:53:31;100062.84;;;17.79;42.75
61906;BME280;47863;55.766;37.672;2023-06-22T03:55:57;100052.44;;;17.82;42.55
61906;BME280;47863;55.766;37.672;2023-06-22T03:58:22;100056.72;;;17.98;42.41
61906;BME280;47863;55.766;37.672;2023-06-22T04:00:50;100046.13;;;18.10;42.21
61906;BME280;47863;55.766;37.672;2023-06-22T04:03:16;100026.94;;;18.05;41.97
61906;BME280;47863;55.766;37.672;2023-06-22T04:05:44;100053.91;;;18.33;41.75
61906;BME280;47863;55.766;37.672;2023-06-22T04:08:10;100051.00;;;18.41;41.48
61906;BME280;47863;55.766;37.672;2023-06-22T04:10:36;100052.47;;;18.51;41.16
61906;BME280;47863;55.766;37.672;2023-06-22T04:13:02;100046.03;;;18.58;41.12
61906;BME280;47863;55.766;37.672;2023-06-22T04:15:27;100046.88;;;18.72;40.47
61906;BME280;47863;55.766;37.672;2023-06-22T04:17:54;100051.69;;;18.83;39.99
61906;BME280;47863;55.766;37.672;2023-06-22T04:20:20;100040.00;;;18.83;39.45
61906;BME280;47863;55.766;37.672;2023-06-22T04:22:45;100033.13;;;18.94;39.75
61906;BME280;47863;55.766;37.672;2023-06-22T04:25:11;100042.06;;;19.14;39.86
61906;BME280;47863;55.766;37.672;2023-06-22T04:27:36;100035.34;;;19.30;39.60
61906;BME280;47863;55.766;37.672;2023-06-22T04:30:09;100031.75;;;19.43;39.52
61906;BME280;47863;55.766;37.672;2023-06-22T04:32:35;100028.78;;;19.58;39.07
61906;BME280;47863;55.766;37.672;2023-06-22T04:35:05;100032.13;;;19.73;39.11
61906;BME280;47863;55.766;37.672;2023-06-22T04:37:32;100028.66;;;19.98;38.92
61906;BME280;47863;55.766;37.672;2023-06-22T04:39:58;100026.47;;;20.13;38.41
61906;BME280;47863;55.766;37.672;2023-06-22T04:42:27;100027.41;;;20.32;38.51
61906;BME280;47863;55.766;37.672;2023-06-22T04:44:53;100025.19;;;20.48;38.19
61906;BME280;47863;55.766;37.672;2023-06-22T04:47:18;100018.66;;;20.62;38.10
61906;BME280;47863;55.766;37.672;2023-06-22T04:49:44;99997.09;;;20.60;38.09
61906;BME280;47863;55.766;37.672;2023-06-22T04:52:11;100018.28;;;20.84;37.99
61906;BME280;47863;55.766;37.672;2023-06-22T04:54:38;100021.63;;;21.04;38.00
61906;BME280;47863;55.766;37.672;2023-06-22T04:57:06;100021.13;;;21.14;37.37
61906;BME280;47863;55.766;37.672;2023-06-22T04:59:36;99999.41;;;21.07;37.56
61906;BME280;47863;55.766;37.672;2023-06-22T05:02:02;100022.59;;;21.35;37.43
61906;BME280;47863;55.766;37.672;2023-06-22T05:04:29;100023.31;;;21.49;37.39
61906;BME280;47863;55.766;37.672;2023-06-22T05:06:59;100001.94;;;21.46;37.47
61906;BME280;47863;55.766;37.672;2023-06-22T05:09:29;100022.84;;;21.70;37.29
61906;BME280;47863;55.766;37.672;2023-06-22T05:11:55;100030.09;;;21.76;37.25
61906;BME280;47863;55.766;37.672;2023-06-22T05:14:22;100026.53;;;21.76;37.50
61906;BME280;47863;55.766;37.672;2023-06-22T05:16:48;100023.19;;;21.74;37.37
61906;BME280;47863;55.766;37.672;2023-06-22T05:19:14;100039.19;;;21.70;37.51
61906;BME280;47863;55.766;37.672;2023-06-22T05:21:40;100034.88;;;21.63;37.10
61906;BME280;47863;55.766;37.672;2023-06-22T05:24:05;100038.22;;;21.65;37.06
61906;BME280;47863;55.766;37.672;2023-06-22T05:26:33;100013.28;;;21.61;37.16
61906;BME280;47863;55.766;37.672;2023-06-22T05:29:00;100033.06;;;21.75;36.84
61906;BME280;47863;55.766;37.672;2023-06-22T05:31:29;100029.03;;;21.77;36.75
61906;BME280;47863;55.766;37.672;2023-06-22T05:33:55;100028.56;;;21.81;36.69
61906;BME280;47863;55.766;37.672;2023-06-22T05:36:21;100013.50;;;21.78;36.69
61906;BME280;47863;55.766;37.672;2023-06-22T05:38:53;100020.31;;;21.87;36.16
61906;BME280;47863;55.766;37.672;2023-06-22T05:41:19;100006.38;;;21.77;36.33
61906;BME280;47863;55.766;37.672;2023-06-22T05:43:45;100018.56;;;21.93;36.21
61906;BME280;47863;55.766;37.672;2023-06-22T05:46:10;100027.53;;;22.12;36.37
61906;BME280;47863;55.766;37.672;2023-06-22T05:48:36;100008.09;;;22.20;36.05
61906;BME280;47863;55.766;37.672;2023-06-22T05:51:02;100023.50;;;22.45;35.77
61906;BME280;47863;55.766;37.672;2023-06-22T05:53:28;100005.25;;;22.57;35.89
61906;BME280;47863;55.766;37.672;2023-06-22T05:55:53;100001.59;;;22.63;35.67
61906;BME280;47863;55.766;37.672;2023-06-22T05:58:19;100025.22;;;22.69;35.71
61906;BME280;47863;55.766;37.672;2023-06-22T06:00:45;100029.94;;;22.62;35.91
61906;BME280;47863;55.766;37.672;2023-06-22T06:03:11;100030.31;;;22.66;35.40
61906;BME280;47863;55.766;37.672;2023-06-22T06:05:37;100012.03;;;22.66;35.53
61906;BME280;47863;55.766;37.672;2023-06-22T06:08:05;100023.34;;;22.82;35.02
61906;BME280;47863;55.766;37.672;2023-06-22T06:10:32;99996.03;;;22.82;34.92
61906;BME280;47863;55.766;37.672;2023-06-22T06:12:58;100010.19;;;23.14;35.02
61906;BME280;47863;55.766;37.672;2023-06-22T06:15:24;100001.56;;;23.46;34.56
61906;BME280;47863;55.766;37.672;2023-06-22T06:17:51;100006.16;;;23.81;34.24
61906;BME280;47863;55.766;37.672;2023-06-22T06:20:22;99991.03;;;23.90;34.01
61906;BME280;47863;55.766;37.672;2023-06-22T06:22:48;100023.13;;;24.23;34.50
61906;BME280;47863;55.766;37.672;2023-06-22T06:25:15;100021.16;;;24.35;34.17
61906;BME280;47863;55.766;37.672;2023-06-22T06:27:45;100020.91;;;24.37;34.26
61906;BME280;47863;55.766;37.672;2023-06-22T06:30:12;100011.09;;;24.53;34.08
61906;BME280;47863;55.766;37.672;2023-06-22T06:32:39;100017.63;;;24.86;33.38
61906;BME280;47863;55.766;37.672;2023-06-22T06:35:06;100023.06;;;25.20;32.92
61906;BME280;47863;55.766;37.672;2023-06-22T06:37:37;100015.75;;;25.42;32.70
61906;BME280;47863;55.766;37.672;2023-06-22T06:40:07;100020.59;;;25.57;32.93
61906;BME280;47863;55.766;37.672;2023-06-22T06:42:38;100019.84;;;25.62;32.68
61906;BME280;47863;55.766;37.672;2023-06-22T06:45:07;99994.91;;;25.63;32.38
61906;BME280;47863;55.766;37.672;2023-06-22T06:47:32;100009.00;;;25.94;32.39
61906;BME280;47863;55.766;37.672;2023-06-22T06:49:58;100017.34;;;26.31;32.23
61906;BME280;47863;55.766;37.672;2023-06-22T06:52:25;100006.53;;;26.52;31.41
61906;BME280;47863;55.766;37.672;2023-06-22T06:54:51;100020.22;;;26.74;31.60
61906;BME280;47863;55.766;37.672;2023-06-22T06:57:18;99998.00;;;26.81;31.05
61906;BME280;47863;55.766;37.672;2023-06-22T06:59:43;100020.47;;;27.10;31.26
61906;BME280;47863;55.766;37.672;2023-06-22T07:02:09;100013.84;;;27.43;30.58
61906;BME280;47863;55.766;37.672;2023-06-22T07:04:35;100005.44;;;27.76;29.97
61906;BME280;47863;55.766;37.672;2023-06-22T07:07:02;100008.59;;;28.15;29.80
61906;BME280;47863;55.766;37.672;2023-06-22T07:09:28;100009.19;;;28.48;29.34
61906;BME280;47863;55.766;37.672;2023-06-22T07:11:54;100004.78;;;29.03;28.68
61906;BME280;47863;55.766;37.672;2023-06-22T07:14:19;100012.88;;;29.75;28.05
61906;BME280;47863;55.766;37.672;2023-06-22T07:16:45;100001.31;;;30.18;27.79
61906;BME280;47863;55.766;37.672;2023-06-22T07:19:13;100009.94;;;30.51;26.83
61906;BME280;47863;55.766;37.672;2023-06-22T07:21:39;100007.06;;;31.00;26.84
61906;BME280;47863;55.766;37.672;2023-06-22T07:24:05;100012.50;;;31.59;26.29
61906;BME280;47863;55.766;37.672;2023-06-22T07:26:31;100007.13;;;32.30;25.56
61906;BME280;47863;55.766;37.672;2023-06-22T07:28:57;100000.19;;;32.98;25.23
61906;BME280;47863;55.766;37.672;2023-06-22T07:31:26;100014.94;;;33.82;24.54
61906;BME280;47863;55.766;37.672;2023-06-22T07:33:52;100001.44;;;34.48;23.74
61906;BME280;47863;55.766;37.672;2023-06-22T07:36:18;100000.41;;;35.11;23.43
61906;BME280;47863;55.766;37.672;2023-06-22T07:38:43;100009.94;;;35.59;22.86
61906;BME280;47863;55.766;37.672;2023-06-22T07:41:09;100008.25;;;36.16;22.84
61906;BME280;47863;55.766;37.672;2023-06-22T07:43:35;99999.03;;;36.76;21.82
61906;BME280;47863;55.766;37.672;2023-06-22T07:46:05;100004.78;;;37.65;20.76
61906;BME280;47863;55.766;37.672;2023-06-22T07:48:31;100007.50;;;38.25;20.74
61906;BME280;47863;55.766;37.672;2023-06-22T07:50:57;100011.41;;;38.99;20.56
61906;BME280;47863;55.766;37.672;2023-06-22T07:53:22;100001.13;;;40.02;19.47
61906;BME280;47863;55.766;37.672;2023-06-22T07:55:51;100000.28;;;40.70;18.62
61906;BME280;47863;55.766;37.672;2023-06-22T07:58:17;100000.72;;;41.48;17.89
61906;BME280;47863;55.766;37.672;2023-06-22T08:00:44;100003.03;;;42.13;17.43
61906;BME280;47863;55.766;37.672;2023-06-22T08:03:09;100006.66;;;42.14;16.48
61906;BME280;47863;55.766;37.672;2023-06-22T08:05:35;99995.72;;;41.93;16.67
61906;BME280;47863;55.766;37.672;2023-06-22T08:08:01;100002.31;;;42.00;16.78
61906;BME280;47863;55.766;37.672;2023-06-22T08:10:26;99995.97;;;42.04;16.09
61906;BME280;47863;55.766;37.672;2023-06-22T08:12:52;99989.56;;;42.23;15.62
61906;BME280;47863;55.766;37.672;2023-06-22T08:15:18;99990.22;;;42.78;15.44
61906;BME280;47863;55.766;37.672;2023-06-22T08:17:44;99989.34;;;43.43;14.70
61906;BME280;47863;55.766;37.672;2023-06-22T08:20:11;99981.19;;;43.91;14.70
61906;BME280;47863;55.766;37.672;2023-06-22T08:22:38;99986.81;;;44.18;14.76
61906;BME280;47863;55.766;37.672;2023-06-22T08:25:04;99987.44;;;44.38;13.96
61906;BME280;47863;55.766;37.672;2023-06-22T08:27:30;99987.13;;;44.84;14.09
61906;BME280;47863;55.766;37.672;2023-06-22T08:30:00;99986.75;;;45.30;13.41
61906;BME280;47863;55.766;37.672;2023-06-22T08:32:29;99986.69;;;45.79;12.84
61906;BME280;47863;55.766;37.672;2023-06-22T08:34:55;99984.09;;;46.36;12.89
61906;BME280;47863;55.766;37.672;2023-06-22T08:37:22;99995.56;;;46.90;12.31
61906;BME280;47863;55.766;37.672;2023-06-22T08:39:56;99979.78;;;47.28;12.10
61906;BME280;47863;55.766;37.672;2023-06-22T08:42:22;99990.19;;;48.00;11.86
61906;BME280;47863;55.766;37.672;2023-06-22T08:44:50;99994.72;;;48.68;11.54
61906;BME280;47863;55.766;37.672;2023-06-22T08:47:15;99979.41;;;49.07;11.06
61906;BME280;47863;55.766;37.672;2023-06-22T08:49:41;99967.72;;;48.94;11.32
61906;BME280;47863;55.766;37.672;2023-06-22T08:52:07;99968.88;;;48.44;10.53
61906;BME280;47863;55.766;37.672;2023-06-22T08:54:33;99973.97;;;47.97;10.73
61906;BME280;47863;55.766;37.672;2023-06-22T08:57:01;99976.31;;;48.16;10.51
61906;BME280;47863;55.766;37.672;2023-06-22T08:59:27;99984.59;;;48.67;10.20
61906;BME280;47863;55.766;37.672;2023-06-22T09:01:52;99972.34;;;49.26;10.07
61906;BME280;47863;55.766;37.672;2023-06-22T09:04:18;99974.16;;;49.85;9.62
61906;BME280;47863;55.766;37.672;2023-06-22T09:06:43;99968.56;;;50.39;9.36
61906;BME280;47863;55.766;37.672;2023-06-22T09:09:12;99941.69;;;50.40;9.28
61906;BME280;47863;55.766;37.672;2023-06-22T09:11:38;99934.47;;;50.32;9.08
61906;BME280;47863;55.766;37.672;2023-06-22T09:14:04;99950.06;;;50.78;8.98
61906;BME280;47863;55.766;37.672;2023-06-22T09:16:30;99957.44;;;50.75;8.91
61906;BME280;47863;55.766;37.672;2023-06-22T09:18:56;99950.41;;;50.56;8.48
61906;BME280;47863;55.766;37.672;2023-06-22T09:21:21;99944.00;;;50.76;8.63
61906;BME280;47863;55.766;37.672;2023-06-22T09:23:47;99940.81;;;50.97;8.61
61906;BME280;47863;55.766;37.672;2023-06-22T09:26:20;99951.56;;;51.33;8.42
61906;BME280;47863;55.766;37.672;2023-06-22T09:28:45;99956.44;;;51.76;8.35
61906;BME280;47863;55.766;37.672;2023-06-22T09:31:11;99941.59;;;51.85;8.37
61906;BME280;47863;55.766;37.672;2023-06-22T09:33:37;99958.53;;;52.12;7.91
61906;BME280;47863;55.766;37.672;2023-06-22T09:36:06;99958.41;;;51.80;7.91
61906;BME280;47863;55.766;37.672;2023-06-22T09:38:36;99919.97;;;51.44;8.25
61906;BME280;47863;55.766;37.672;2023-06-22T09:41:01;99933.97;;;51.59;7.67
61906;BME280;47863;55.766;37.672;2023-06-22T09:43:27;99946.38;;;51.28;7.75
61906;BME280;47863;55.766;37.672;2023-06-22T09:45:53;99941.81;;;51.07;7.97
61906;BME280;47863;55.766;37.672;2023-06-22T09:48:19;99930.88;;;51.06;7.52
61906;BME280;47863;55.766;37.672;2023-06-22T09:50:45;99944.41;;;51.45;7.78
61906;BME280;47863;55.766;37.672;2023-06-22T09:53:10;99924.47;;;51.65;7.68
61906;BME280;47863;55.766;37.672;2023-06-22T09:55:36;99915.53;;;51.83;7.46
61906;BME280;47863;55.766;37.672;2023-06-22T09:58:01;99920.16;;;52.13;7.14
61906;BME280;47863;55.766;37.672;2023-06-22T10:00:27;99921.38;;;52.16;6.83
61906;BME280;47863;55.766;37.672;2023-06-22T10:02:53;99924.91;;;51.84;7.26
61906;BME280;47863;55.766;37.672;2023-06-22T10:05:18;99916.97;;;51.08;7.33
61906;BME280;47863;55.766;37.672;2023-06-22T10:07:44;99937.81;;;50.81;7.43
61906;BME280;47863;55.766;37.672;2023-06-22T10:10:10;99942.38;;;50.75;7.52
61906;BME280;47863;55.766;37.672;2023-06-22T10:12:41;99934.88;;;50.61;7.62
61906;BME280;47863;55.766;37.672;2023-06-22T10:15:07;99925.09;;;50.62;7.49
61906;BME280;47863;55.766;37.672;2023-06-22T10:17:33;99917.56;;;50.21;7.78
61906;BME280;47863;55.766;37.672;2023-06-22T10:19:59;99910.75;;;49.08;7.89
61906;BME280;47863;55.766;37.672;2023-06-22T10:22:26;99905.41;;;48.69;8.31
61906;BME280;47863;55.766;37.672;2023-06-22T10:24:51;99897.25;;;48.74;8.15
61906;BME280;47863;55.766;37.672;2023-06-22T10:27:17;99878.25;;;49.06;7.82
61906;BME280;47863;55.766;37.672;2023-06-22T10:29:43;99884.41;;;49.42;7.87
61906;BME280;47863;55.766;37.672;2023-06-22T10:32:09;99900.56;;;49.49;7.40
61906;BME280;47863;55.766;37.672;2023-06-22T10:34:35;99887.72;;;48.92;7.99
61906;BME280;47863;55.766;37.672;2023-06-22T10:37:00;99893.22;;;48.64;7.94
61906;BME280;47863;55.766;37.672;2023-06-22T10:39:26;99896.13;;;47.87;8.10
61906;BME280;47863;55.766;37.672;2023-06-22T10:41:51;99897.03;;;47.70;8.06
61906;BME280;47863;55.766;37.672;2023-06-22T10:44:17;99849.69;;;47.56;7.98
61906;BME280;47863;55.766;37.672;2023-06-22T10:46:43;99884.75;;;47.94;8.01
61906;BME280;47863;55.766;37.672;2023-06-22T10:49:08;99891.22;;;48.02;8.38
61906;BME280;47863;55.766;37.672;2023-06-22T10:51:34;99885.97;;;47.97;8.26
61906;BME280;47863;55.766;37.672;2023-06-22T10:53:59;99866.09;;;47.97;8.21
61906;BME280;47863;55.766;37.672;2023-06-22T10:56:25;99877.31;;;48.15;8.24
61906;BME280;47863;55.766;37.672;2023-06-22T10:58:51;99883.16;;;47.90;8.06
61906;BME280;47863;55.766;37.672;2023-06-22T11:01:16;99875.06;;;47.81;8.13
61906;BME280;47863;55.766;37.672;2023-06-22T11:03:42;99886.41;;;47.81;8.00
61906;BME280;47863;55.766;37.672;2023-06-22T11:06:08;99878.38;;;47.72;8.46
61906;BME280;47863;55.766;37.672;2023-06-22T11:08:34;99868.66;;;47.70;8.50
61906;BME280;47863;55.766;37.672;2023-06-22T11:10:59;99873.47;;;47.76;8.47
61906;BME280;47863;55.766;37.672;2023-06-22T11:13:25;99854.09;;;47.60;8.47
61906;BME280;47863;55.766;37.672;2023-06-22T11:15:50;99848.56;;;46.92;8.89
61906;BME280;47863;55.766;37.672;2023-06-22T11:18:16;99854.63;;;46.73;9.14
61906;BME280;47863;55.766;37.672;2023-06-22T11:20:42;99857.50;;;46.87;8.84
61906;BME280;47863;55.766;37.672;2023-06-22T11:23:07;99839.66;;;47.04;8.65
61906;BME280;47863;55.766;37.672;2023-06-22T11:25:33;99823.88;;;46.96;8.76
61906;BME280;47863;55.766;37.672;2023-06-22T11:28:03;99839.59;;;47.33;8.83
61906;BME280;47863;55.766;37.672;2023-06-22T11:30:30;99835.44;;;47.63;8.35
61906;BME280;47863;55.766;37.672;2023-06-22T11:32:59;99830.44;;;47.89;8.65
61906;BME280;47863;55.766;37.672;2023-06-22T11:35:25;99839.25;;;48.09;8.53
61906;BME280;47863;55.766;37.672;2023-06-22T11:37:51;99837.56;;;48.15;8.61
61906;BME280;47863;55.766;37.672;2023-06-22T11:40:16;99831.47;;;48.16;8.40
61906;BME280;47863;55.766;37.672;2023-06-22T11:42:43;99804.50;;;47.86;8.70
61906;BME280;47863;55.766;37.672;2023-06-22T11:45:09;99823.31;;;47.55;8.79
61906;BME280;47863;55.766;37.672;2023-06-22T11:47:35;99799.09;;;47.22;8.97
61906;BME280;47863;55.766;37.672;2023-06-22T11:50:02;99811.38;;;46.54;8.83
61906;BME280;47863;55.766;37.672;2023-06-22T11:52:30;99807.13;;;45.58;9.53
61906;BME280;47863;55.766;37.672;2023-06-22T11:54:56;99798.16;;;45.35;9.61
61906;BME280;47863;55.766;37.672;2023-06-22T11:57:22;99808.69;;;45.45;9.77
61906;BME280;47863;55.766;37.672;2023-06-22T11:59:47;99781.19;;;45.35;9.30
61906;BME280;47863;55.766;37.672;2023-06-22T12:02:13;99774.31;;;44.73;9.96
61906;BME280;47863;55.766;37.672;2023-06-22T12:04:38;99768.94;;;43.34;10.20
61906;BME280;47863;55.766;37.672;2023-06-22T12:07:04;99768.03;;;42.23;10.50
61906;BME280;47863;55.766;37.672;2023-06-22T12:09:30;99764.00;;;42.24;10.90
61906;BME280;47863;55.766;37.672;2023-06-22T12:11:55;99749.25;;;42.54;10.62
61906;BME280;47863;55.766;37.672;2023-06-22T12:14:21;99774.41;;;42.93;10.56
61906;BME280;47863;55.766;37.672;2023-06-22T12:16:47;99779.47;;;42.57;10.65
61906;BME280;47863;55.766;37.672;2023-06-22T12:19:12;99768.88;;;41.22;11.28
61906;BME280;47863;55.766;37.672;2023-06-22T12:21:38;99766.28;;;39.42;12.38
61906;BME280;47863;55.766;37.672;2023-06-22T12:24:06;99754.09;;;37.66;12.93
61906;BME280;47863;55.766;37.672;2023-06-22T12:26:33;99724.81;;;36.28;13.64
61906;BME280;47863;55.766;37.672;2023-06-22T12:28:58;99720.41;;;35.45;14.48
61906;BME280;47863;55.766;37.672;2023-06-22T12:31:24;99740.84;;;35.14;14.56
61906;BME280;47863;55.766;37.672;2023-06-22T12:33:50;99749.72;;;34.50;14.85
61906;BME280;47863;55.766;37.672;2023-06-22T12:36:15;99747.69;;;34.02;15.53
61906;BME280;47863;55.766;37.672;2023-06-22T12:38:42;99718.81;;;33.35;15.93
61906;BME280;47863;55.766;37.672;2023-06-22T12:41:07;99731.44;;;33.05;16.28
61906;BME280;47863;55.766;37.672;2023-06-22T12:43:33;99689.41;;;32.48;16.09
61906;BME280;47863;55.766;37.672;2023-06-22T12:45:58;99702.25;;;32.30;16.72
61906;BME280;47863;55.766;37.672;2023-06-22T12:48:26;99700.97;;;31.94;16.57
61906;BME280;47863;55.766;37.672;2023-06-22T12:50:52;99711.81;;;31.77;16.67
61906;BME280;47863;55.766;37.672;2023-06-22T12:53:18;99723.66;;;31.63;17.21